createdAt,value
2023-09-08T00:00:01.228Z,15.7
2023-09-08T00:02:01.008Z,15.7
2023-09-08T00:04:01.187Z,15.7
2023-09-08T00:06:00.943Z,15.6
2023-09-08T00:08:00.717Z,15.6
2023-09-08T00:10:00.625Z,15.6
2023-09-08T00:12:01.160Z,15.6
2023-09-08T00:14:00.599Z,15.5
2023-09-08T00:16:01.190Z,15.6
2023-09-08T00:18:00.514Z,15.5
2023-09-08T00:20:00.675Z,15.5
2023-09-08T00:22:00.878Z,15.6
2023-09-08T00:24:00.968Z,15.4
2023-09-08T00:26:00.557Z,15.4
2023-09-08T00:28:00.666Z,15.4
2023-09-08T00:30:00.771Z,15.4
2023-09-08T00:32:00.489Z,15.2
2023-09-08T00:34:01.151Z,15.2
2023-09-08T00:36:00.676Z,15.2
2023-09-08T00:38:00.598Z,15.3
2023-09-08T00:40:01.105Z,15.3
2023-09-08T00:42:00.953Z,15.3
2023-09-08T00:44:01.028Z,15.3
2023-09-08T00:46:01.110Z,15.3
2023-09-08T00:48:00.722Z,15.2
2023-09-08T00:50:01.590Z,15.2
2023-09-08T00:52:01.084Z,15.2
2023-09-08T00:54:00.556Z,15.2
2023-09-08T00:56:02.023Z,15.1
2023-09-08T00:58:01.773Z,15.1
2023-09-08T01:00:01.564Z,15.1
2023-09-08T01:02:01.391Z,15.0
2023-09-08T01:04:00.992Z,15.1
2023-09-08T01:06:01.347Z,15.0
2023-09-08T01:08:00.849Z,15.1
2023-09-08T01:10:01.504Z,15.0
2023-09-08T01:12:02.929Z,15.0
2023-09-08T01:14:00.962Z,15.0
2023-09-08T01:16:01.458Z,14.9
2023-09-08T01:18:00.681Z,14.9
2023-09-08T01:20:13.877Z,14.9
2023-09-08T01:22:21.735Z,14.8
2023-09-08T01:24:19.146Z,14.8
2023-09-08T01:26:07.993Z,14.8
2023-09-08T01:28:02.893Z,14.9
2023-09-08T01:30:01.971Z,14.9
2023-09-08T01:32:01.465Z,14.9
2023-09-08T01:34:01.415Z,14.9
2023-09-08T01:36:01.230Z,14.9
2023-09-08T01:38:00.490Z,14.8
2023-09-08T01:40:01.223Z,14.8
2023-09-08T01:42:00.858Z,14.8
2023-09-08T01:44:00.941Z,14.6
2023-09-08T01:46:00.886Z,14.6
2023-09-08T01:48:00.614Z,14.7
2023-09-08T01:50:02.021Z,14.6
2023-09-08T01:52:00.813Z,14.6
2023-09-08T01:54:01.057Z,14.6
2023-09-08T01:56:01.054Z,14.7
2023-09-08T01:58:00.522Z,14.8
2023-09-08T02:00:00.918Z,14.8
2023-09-08T02:02:00.933Z,14.8
2023-09-08T02:04:01.004Z,14.7
2023-09-08T02:06:01.055Z,14.6
2023-09-08T02:08:00.615Z,14.6
2023-09-08T02:10:01.034Z,14.6
2023-09-08T02:12:01.187Z,14.6
2023-09-08T02:14:00.454Z,14.5
2023-09-08T02:16:01.240Z,14.5
2023-09-08T02:18:00.526Z,14.5
2023-09-08T02:20:00.499Z,14.4
2023-09-08T02:22:00.992Z,14.5
2023-09-08T02:24:00.533Z,14.6
2023-09-08T02:26:01.288Z,14.6
2023-09-08T02:28:00.917Z,14.6
2023-09-08T02:30:00.566Z,14.4
2023-09-08T02:32:00.684Z,14.4
2023-09-08T02:34:00.520Z,14.4
2023-09-08T02:36:01.888Z,14.4
2023-09-08T02:38:00.494Z,14.3
2023-09-08T02:40:01.419Z,14.2
2023-09-08T02:42:00.746Z,14.2
2023-09-08T02:44:00.633Z,14.2
2023-09-08T02:46:00.603Z,14.1
2023-09-08T02:48:00.843Z,14.1
2023-09-08T02:50:00.517Z,14.1
2023-09-08T02:52:00.643Z,14.2
2023-09-08T02:54:00.562Z,14.2
2023-09-08T02:56:00.812Z,14.2
2023-09-08T02:58:00.676Z,14.3
2023-09-08T03:00:00.978Z,14.2
2023-09-08T03:02:00.540Z,14.2
2023-09-08T03:04:01.032Z,14.2
2023-09-08T03:06:00.941Z,14.2
2023-09-08T03:08:00.484Z,14.2
2023-09-08T03:10:00.671Z,14.2
2023-09-08T03:12:01.078Z,14.2
2023-09-08T03:14:00.748Z,14.3
2023-09-08T03:16:03.069Z,14.2
2023-09-08T03:18:00.684Z,14.2
2023-09-08T03:20:00.810Z,14.2
2023-09-08T03:22:00.815Z,14.2
2023-09-08T03:24:00.852Z,14.2
2023-09-08T03:26:00.454Z,14.1
2023-09-08T03:28:01.001Z,14.1
2023-09-08T03:30:00.626Z,14.1
2023-09-08T03:32:02.462Z,14.2
2023-09-08T03:34:01.094Z,14.1
2023-09-08T03:36:00.676Z,14.1
2023-09-08T03:38:00.897Z,14.1
2023-09-08T03:40:01.145Z,14.2
2023-09-08T03:42:01.564Z,14.2
2023-09-08T03:44:00.505Z,14.1
2023-09-08T03:46:00.628Z,14.2
2023-09-08T03:48:00.484Z,14.2
2023-09-08T03:50:01.085Z,14.1
2023-09-08T03:52:01.094Z,14.1
2023-09-08T03:54:00.502Z,14.1
2023-09-08T03:56:00.784Z,14.1
2023-09-08T03:58:01.260Z,13.9
2023-09-08T04:00:00.728Z,13.8
2023-09-08T04:02:00.503Z,13.9
2023-09-08T04:04:01.117Z,13.9
2023-09-08T04:06:00.485Z,13.9
2023-09-08T04:08:00.840Z,13.9
2023-09-08T04:10:00.908Z,13.9
2023-09-08T04:12:00.938Z,13.8
2023-09-08T04:14:00.571Z,13.8
2023-09-08T04:16:01.149Z,13.8
2023-09-08T04:18:01.011Z,13.8
2023-09-08T04:20:00.824Z,13.8
2023-09-08T04:22:00.486Z,13.7
2023-09-08T04:24:00.575Z,13.7
2023-09-08T04:26:01.149Z,13.5
2023-09-08T04:28:01.071Z,13.5
2023-09-08T04:30:01.239Z,13.6
2023-09-08T04:32:00.823Z,13.6
2023-09-08T04:34:01.084Z,13.6
2023-09-08T04:36:00.776Z,13.5
2023-09-08T04:38:02.074Z,13.5
2023-09-08T04:40:00.894Z,13.5
2023-09-08T04:42:01.183Z,13.5
2023-09-08T04:44:00.475Z,13.5
2023-09-08T04:46:00.865Z,13.5
2023-09-08T04:48:00.507Z,13.5
2023-09-08T04:50:00.893Z,13.4
2023-09-08T04:52:01.132Z,13.5
2023-09-08T04:54:00.606Z,13.5
2023-09-08T04:56:01.046Z,13.5
2023-09-08T04:58:00.743Z,13.4
2023-09-08T05:00:00.798Z,13.4
2023-09-08T05:02:01.496Z,13.4
2023-09-08T05:04:01.265Z,13.3
2023-09-08T05:06:00.950Z,13.4
2023-09-08T05:08:00.458Z,13.4
2023-09-08T05:10:00.887Z,13.4
2023-09-08T05:12:00.605Z,13.4
2023-09-08T05:14:00.598Z,13.5
2023-09-08T05:16:00.862Z,13.5
2023-09-08T05:18:00.850Z,13.6
2023-09-08T05:20:00.590Z,13.6
2023-09-08T05:22:00.748Z,13.6
2023-09-08T05:24:00.633Z,13.7
2023-09-08T05:26:00.912Z,13.8
2023-09-08T05:28:01.150Z,13.8
2023-09-08T05:30:00.619Z,13.8
2023-09-08T05:32:00.500Z,13.9
2023-09-08T05:34:00.525Z,14.0
2023-09-08T05:36:00.901Z,14.0
2023-09-08T05:38:01.013Z,14.0
2023-09-08T05:40:00.796Z,14.0
2023-09-08T05:42:01.519Z,14.1
2023-09-08T05:44:00.587Z,14.2
2023-09-08T05:46:01.062Z,14.2
2023-09-08T05:48:01.071Z,14.2
2023-09-08T05:50:00.576Z,14.3
2023-09-08T05:52:01.104Z,14.5
2023-09-08T05:54:01.146Z,14.5
2023-09-08T05:56:00.901Z,14.6
2023-09-08T05:58:00.996Z,14.6
2023-09-08T06:00:00.774Z,14.7
2023-09-08T06:02:01.054Z,14.8
2023-09-08T06:04:01.268Z,14.9
2023-09-08T06:06:00.655Z,15.0
2023-09-08T06:08:07.203Z,15.1
2023-09-08T06:10:00.499Z,15.2
2023-09-08T06:12:00.738Z,15.3
2023-09-08T06:14:00.931Z,15.4
2023-09-08T06:16:00.941Z,15.5
2023-09-08T06:18:00.630Z,15.6
2023-09-08T06:20:00.616Z,15.6
2023-09-08T06:22:00.670Z,15.4
2023-09-08T06:24:01.146Z,15.6
2023-09-08T06:26:01.208Z,15.7
2023-09-08T06:28:00.873Z,16.2
2023-09-08T06:30:01.019Z,16.4
2023-09-08T06:32:00.500Z,16.5
2023-09-08T06:34:00.776Z,16.7
2023-09-08T06:36:00.632Z,16.7
2023-09-08T06:38:00.505Z,16.8
2023-09-08T06:40:01.099Z,16.9
2023-09-08T06:42:00.837Z,16.9
2023-09-08T06:44:00.517Z,17.0
2023-09-08T06:46:00.809Z,17.1
2023-09-08T06:48:00.714Z,17.1
2023-09-08T06:50:00.724Z,17.2
2023-09-08T06:52:01.013Z,17.3
2023-09-08T06:54:00.832Z,17.5
2023-09-08T06:56:00.667Z,17.6
2023-09-08T06:58:00.572Z,17.7
2023-09-08T07:00:00.707Z,17.8
2023-09-08T07:02:01.842Z,17.9
2023-09-08T07:04:01.168Z,18.0
2023-09-08T07:06:00.791Z,18.1
2023-09-08T07:08:00.712Z,18.3
2023-09-08T07:10:00.931Z,18.6
2023-09-08T07:12:01.067Z,18.6
2023-09-08T07:14:00.484Z,18.8
2023-09-08T07:16:01.000Z,19.0
2023-09-08T07:18:00.680Z,19.2
2023-09-08T07:20:00.769Z,19.4
2023-09-08T07:22:00.622Z,19.4
2023-09-08T07:24:00.694Z,19.5
2023-09-08T07:26:00.730Z,19.4
2023-09-08T07:28:00.866Z,19.6
2023-09-08T07:30:00.773Z,19.8
2023-09-08T07:32:00.823Z,19.8
2023-09-08T07:34:00.524Z,19.9
2023-09-08T07:36:04.556Z,20.1
2023-09-08T07:38:00.865Z,20.2
2023-09-08T07:40:00.775Z,20.4
2023-09-08T07:42:02.038Z,20.8
2023-09-08T07:44:00.928Z,21.2
2023-09-08T07:46:00.663Z,21.6
2023-09-08T07:48:01.221Z,21.8
2023-09-08T07:50:20.124Z,22.0
2023-09-08T07:52:00.844Z,22.2
2023-09-08T07:54:00.537Z,22.3
2023-09-08T07:56:00.594Z,22.2
2023-09-08T07:58:01.693Z,22.5
2023-09-08T08:00:01.767Z,22.8
2023-09-08T08:02:01.076Z,22.9
2023-09-08T08:04:00.775Z,23.1
2023-09-08T08:06:00.797Z,23.2
2023-09-08T08:08:00.884Z,23.3
2023-09-08T08:10:00.786Z,23.3
2023-09-08T08:12:00.520Z,23.5
2023-09-08T08:14:01.290Z,23.6
2023-09-08T08:16:00.934Z,23.8
2023-09-08T08:18:00.544Z,23.9
2023-09-08T08:20:02.054Z,23.9
2023-09-08T08:22:00.774Z,23.9
2023-09-08T08:24:00.590Z,24.0
2023-09-08T08:26:00.670Z,23.8
2023-09-08T08:28:01.225Z,23.7
2023-09-08T08:30:00.786Z,23.8
2023-09-08T08:32:00.572Z,23.8
2023-09-08T08:34:00.506Z,24.0
2023-09-08T08:36:01.225Z,24.2
2023-09-08T08:38:00.975Z,24.6
2023-09-08T08:40:00.589Z,24.7
2023-09-08T08:42:06.260Z,24.7
2023-09-08T08:44:00.664Z,24.9
2023-09-08T08:46:01.750Z,24.9
2023-09-08T08:48:01.810Z,24.8
2023-09-08T08:50:02.035Z,24.9
2023-09-08T08:52:00.702Z,24.9
2023-09-08T08:54:01.525Z,25.0
2023-09-08T08:56:00.903Z,25.3
2023-09-08T08:58:04.070Z,25.3
2023-09-08T09:00:01.454Z,25.4
2023-09-08T09:02:02.572Z,25.4
2023-09-08T09:04:01.331Z,25.4
2023-09-08T09:06:01.591Z,25.4
2023-09-08T09:08:01.862Z,25.0
2023-09-08T09:10:01.142Z,25.0
2023-09-08T09:12:00.660Z,25.0
2023-09-08T09:14:00.928Z,25.1
2023-09-08T09:16:01.530Z,25.1
2023-09-08T09:18:03.679Z,25.3
2023-09-08T09:20:12.590Z,25.5
2023-09-08T09:22:00.650Z,25.5
2023-09-08T09:24:00.599Z,25.6
2023-09-08T09:26:03.004Z,25.7
2023-09-08T09:28:02.630Z,25.8
2023-09-08T09:30:00.613Z,26.0
2023-09-08T09:32:04.452Z,26.0
2023-09-08T09:34:03.125Z,26.1
2023-09-08T09:36:00.726Z,26.1
2023-09-08T09:38:02.371Z,26.2
2023-09-08T09:40:00.922Z,26.5
2023-09-08T09:42:02.215Z,26.4
2023-09-08T09:44:00.663Z,26.0
2023-09-08T09:46:00.596Z,25.9
2023-09-08T09:48:02.411Z,26.3
2023-09-08T09:50:01.324Z,26.3
2023-09-08T09:52:00.769Z,26.4
2023-09-08T09:54:04.000Z,26.4
2023-09-08T09:56:01.233Z,26.6
2023-09-08T09:58:02.853Z,26.5
2023-09-08T10:00:02.632Z,26.7
2023-09-08T10:02:00.880Z,26.5
2023-09-08T10:04:04.263Z,27.1
2023-09-08T10:06:03.097Z,27.0
2023-09-08T10:08:00.812Z,27.1
2023-09-08T10:10:00.500Z,27.3
2023-09-08T10:12:04.574Z,27.0
2023-09-08T10:14:01.650Z,27.4
2023-09-08T10:16:02.072Z,27.6
2023-09-08T10:18:04.975Z,27.7
2023-09-08T10:20:01.368Z,27.4
2023-09-08T10:22:03.789Z,27.6
2023-09-08T10:24:09.147Z,27.7
2023-09-08T10:26:05.246Z,28.2
2023-09-08T10:28:00.770Z,28.1
2023-09-08T10:30:01.646Z,28.4
2023-09-08T10:32:01.477Z,28.2
2023-09-08T10:34:02.237Z,27.9
2023-09-08T10:36:01.944Z,28.1
2023-09-08T10:38:21.858Z,28.2
2023-09-08T10:40:21.862Z,28.2
2023-09-08T10:42:20.029Z,28.1
2023-09-08T10:44:03.395Z,28.2
2023-09-08T10:46:08.569Z,27.9
2023-09-08T10:48:01.009Z,28.1
2023-09-08T10:50:01.752Z,27.9
2023-09-08T10:52:07.866Z,28.7
2023-09-08T10:54:01.735Z,29.0
2023-09-08T10:56:17.066Z,29.0
2023-09-08T10:58:00.898Z,29.0
2023-09-08T11:00:03.532Z,29.2
2023-09-08T11:02:03.557Z,28.9
2023-09-08T11:04:05.879Z,29.0
2023-09-08T11:06:03.472Z,29.2
2023-09-08T11:08:00.714Z,29.1
2023-09-08T11:10:00.582Z,29.2
2023-09-08T11:12:01.343Z,29.5
2023-09-08T11:14:02.482Z,29.3
2023-09-08T11:16:01.793Z,29.5
2023-09-08T11:18:08.157Z,29.7
2023-09-08T11:20:01.566Z,29.4
2023-09-08T11:22:00.535Z,29.2
2023-09-08T11:24:01.809Z,29.7
2023-09-08T11:26:01.180Z,29.4
2023-09-08T11:28:01.188Z,29.6
2023-09-08T11:30:00.672Z,29.6
2023-09-08T11:32:01.686Z,29.5
2023-09-08T11:34:01.118Z,29.5
2023-09-08T11:36:00.467Z,29.6
2023-09-08T11:38:01.162Z,29.8
2023-09-08T11:40:00.512Z,29.8
2023-09-08T11:42:01.084Z,29.6
2023-09-08T11:44:01.000Z,29.8
2023-09-08T11:46:01.057Z,29.9
2023-09-08T11:48:01.019Z,30.0
2023-09-08T11:50:02.598Z,30.2
2023-09-08T11:52:00.633Z,30.0
2023-09-08T11:54:01.416Z,30.0
2023-09-08T11:56:00.640Z,30.2
2023-09-08T11:58:00.654Z,30.5
2023-09-08T12:00:01.658Z,30.7
2023-09-08T12:02:01.291Z,30.6
2023-09-08T12:04:00.488Z,30.5
2023-09-08T12:06:01.141Z,30.6
2023-09-08T12:08:04.794Z,30.6
2023-09-08T12:10:07.920Z,30.1
2023-09-08T12:12:02.827Z,29.9
2023-09-08T12:14:01.454Z,29.5
2023-09-08T12:16:01.041Z,29.4
2023-09-08T12:18:01.607Z,30.1
2023-09-08T12:20:00.580Z,30.1
2023-09-08T12:22:02.322Z,29.8
2023-09-08T12:24:00.887Z,30.8
2023-09-08T12:26:01.105Z,30.2
2023-09-08T12:28:01.269Z,30.6
2023-09-08T12:30:01.230Z,30.3
2023-09-08T12:32:01.982Z,30.3
2023-09-08T12:34:01.368Z,30.3
2023-09-08T12:36:10.155Z,30.4
2023-09-08T12:38:02.813Z,30.3
2023-09-08T12:40:00.531Z,30.2
2023-09-08T12:42:00.857Z,30.4
2023-09-08T12:44:00.666Z,30.7
2023-09-08T12:46:00.909Z,30.4
2023-09-08T12:48:02.164Z,30.6
2023-09-08T12:50:01.341Z,30.8
2023-09-08T12:52:01.109Z,30.5
2023-09-08T12:54:00.941Z,30.5
2023-09-08T12:56:00.830Z,30.8
2023-09-08T12:58:01.828Z,31.1
2023-09-08T13:00:01.737Z,30.6
2023-09-08T13:02:00.986Z,30.8
2023-09-08T13:04:00.524Z,30.8
2023-09-08T13:06:01.422Z,30.8
2023-09-08T13:08:01.949Z,30.9
2023-09-08T13:10:00.676Z,31.1
2023-09-08T13:12:00.851Z,31.7
2023-09-08T13:14:01.163Z,31.7
2023-09-08T13:16:00.966Z,31.9
2023-09-08T13:18:00.706Z,31.9
2023-09-08T13:20:01.476Z,32.0
2023-09-08T13:22:00.823Z,31.8
2023-09-08T13:24:02.400Z,31.8
2023-09-08T13:26:01.051Z,32.2
2023-09-08T13:28:01.463Z,32.5
2023-09-08T13:30:09.213Z,32.4
2023-09-08T13:32:00.551Z,32.2
2023-09-08T13:34:01.113Z,32.2
2023-09-08T13:36:01.020Z,32.2
2023-09-08T13:38:00.948Z,31.8
2023-09-08T13:40:00.671Z,31.3
2023-09-08T13:42:02.322Z,31.4
2023-09-08T13:44:01.105Z,31.3
2023-09-08T13:46:00.640Z,31.3
2023-09-08T13:48:00.946Z,31.3
2023-09-08T13:50:02.783Z,31.3
2023-09-08T13:52:02.012Z,31.6
2023-09-08T13:54:02.986Z,31.8
2023-09-08T13:56:04.272Z,32.0
2023-09-08T13:58:02.233Z,32.2
2023-09-08T14:00:04.338Z,32.5
2023-09-08T14:04:03.798Z,32.3
2023-09-08T14:06:03.180Z,32.4
2023-09-08T14:10:16.966Z,32.4
2023-09-08T14:14:01.261Z,32.7
2023-09-08T14:16:03.026Z,32.4
2023-09-08T14:18:00.796Z,32.0
2023-09-08T14:20:01.104Z,32.2
2023-09-08T14:22:01.232Z,32.0
2023-09-08T14:24:00.909Z,32.0
2023-09-08T14:26:01.147Z,32.1
2023-09-08T14:28:01.991Z,32.2
2023-09-08T14:30:01.026Z,32.3
2023-09-08T14:32:01.157Z,32.6
2023-09-08T14:34:00.595Z,32.6
2023-09-08T14:36:00.937Z,32.1
2023-09-08T14:38:01.283Z,32.6
2023-09-08T14:40:00.825Z,32.5
2023-09-08T14:42:01.069Z,32.6
2023-09-08T14:44:00.533Z,32.3
2023-09-08T14:46:00.921Z,32.1
2023-09-08T14:48:01.858Z,32.5
2023-09-08T14:50:01.210Z,31.8
2023-09-08T14:52:00.884Z,32.3
2023-09-08T14:54:01.036Z,32.0
2023-09-08T14:56:00.806Z,31.9
2023-09-08T14:58:00.506Z,32.2
2023-09-08T15:00:01.966Z,31.4
2023-09-08T15:02:00.773Z,31.1
2023-09-08T15:04:00.569Z,32.1
2023-09-08T15:06:00.863Z,32.1
2023-09-08T15:08:01.565Z,32.2
2023-09-08T15:10:00.689Z,32.0
2023-09-08T15:12:00.936Z,32.2
2023-09-08T15:14:01.137Z,32.5
2023-09-08T15:16:00.667Z,32.5
2023-09-08T15:18:01.147Z,32.5
2023-09-08T15:20:01.105Z,32.2
2023-09-08T15:22:00.955Z,32.5
2023-09-08T15:24:00.584Z,32.7
2023-09-08T15:26:01.345Z,32.4
2023-09-08T15:28:00.812Z,32.6
2023-09-08T15:30:01.169Z,32.9
2023-09-08T15:32:00.627Z,33.4
2023-09-08T15:34:00.530Z,33.3
2023-09-08T15:36:00.570Z,33.7
2023-09-08T15:38:01.037Z,34.1
2023-09-08T15:40:01.222Z,33.9
2023-09-08T15:42:00.687Z,33.4
2023-09-08T15:44:00.593Z,33.3
2023-09-08T15:46:00.553Z,33.2
2023-09-08T15:48:00.705Z,32.9
2023-09-08T15:50:00.960Z,32.7
2023-09-08T15:52:08.853Z,33.0
2023-09-08T15:54:00.478Z,33.3
2023-09-08T15:56:01.437Z,33.6
2023-09-08T15:58:00.509Z,33.2
2023-09-08T16:00:01.456Z,33.6
2023-09-08T16:02:01.104Z,33.5
2023-09-08T16:04:01.213Z,33.4
2023-09-08T16:06:01.304Z,33.4
2023-09-08T16:08:00.511Z,32.7
2023-09-08T16:10:00.687Z,31.5
2023-09-08T16:12:01.225Z,31.0
2023-09-08T16:14:01.131Z,29.9
2023-09-08T16:16:01.167Z,29.7
2023-09-08T16:18:01.314Z,29.2
2023-09-08T16:20:00.986Z,29.0
2023-09-08T16:22:00.882Z,28.9
2023-09-08T16:24:00.475Z,29.1
2023-09-08T16:26:01.096Z,29.2
2023-09-08T16:28:01.383Z,28.9
2023-09-08T16:30:01.003Z,28.8
2023-09-08T16:32:00.928Z,28.3
2023-09-08T16:34:00.752Z,28.2
2023-09-08T16:36:00.908Z,27.9
2023-09-08T16:38:00.792Z,27.9
2023-09-08T16:40:00.905Z,27.8
2023-09-08T16:42:00.967Z,27.6
2023-09-08T16:44:00.922Z,27.5
2023-09-08T16:46:00.919Z,27.2
2023-09-08T16:48:01.163Z,27.3
2023-09-08T16:50:00.880Z,27.0
2023-09-08T16:52:01.145Z,27.0
2023-09-08T16:54:00.885Z,26.8
2023-09-08T16:56:01.141Z,27.0
2023-09-08T16:58:01.957Z,27.2
2023-09-08T17:00:00.889Z,27.0
2023-09-08T17:02:01.225Z,27.1
2023-09-08T17:04:00.652Z,26.7
2023-09-08T17:06:01.243Z,26.7
2023-09-08T17:08:00.475Z,26.6
2023-09-08T17:10:01.573Z,26.8
2023-09-08T17:12:00.766Z,26.6
2023-09-08T17:14:01.251Z,26.2
2023-09-08T17:16:01.266Z,26.3
2023-09-08T17:18:01.072Z,25.9
2023-09-08T17:20:00.894Z,25.7
2023-09-08T17:22:00.819Z,26.0
2023-09-08T17:24:00.454Z,25.9
2023-09-08T17:26:01.115Z,25.8
2023-09-08T17:28:01.208Z,25.6
2023-09-08T17:30:00.750Z,25.5
2023-09-08T17:32:00.489Z,25.4
2023-09-08T17:34:01.157Z,25.3
2023-09-08T17:36:00.771Z,25.2
2023-09-08T17:38:00.891Z,25.3
2023-09-08T17:40:00.444Z,25.3
2023-09-08T17:42:00.569Z,25.3
2023-09-08T17:44:00.860Z,25.2
2023-09-08T17:46:04.449Z,25.0
2023-09-08T17:48:01.067Z,25.1
2023-09-08T17:50:01.813Z,25.0
2023-09-08T17:52:03.557Z,24.7
2023-09-08T17:54:00.499Z,24.5
2023-09-08T17:56:00.687Z,24.5
2023-09-08T17:58:01.140Z,24.4
2023-09-08T18:00:01.037Z,24.3
2023-09-08T18:02:00.914Z,24.4
2023-09-08T18:04:00.794Z,24.4
2023-09-08T18:06:00.578Z,24.3
2023-09-08T18:08:00.631Z,23.9
2023-09-08T18:10:01.070Z,23.5
2023-09-08T18:12:01.510Z,23.4
2023-09-08T18:14:00.998Z,23.3
2023-09-08T18:16:01.846Z,23.5
2023-09-08T18:18:00.521Z,23.5
2023-09-08T18:20:02.978Z,23.5
2023-09-08T18:22:00.871Z,23.5
2023-09-08T18:24:00.453Z,23.6
2023-09-08T18:26:00.898Z,23.5
2023-09-08T18:28:00.923Z,23.4
2023-09-08T18:30:00.476Z,23.3
2023-09-08T18:32:00.803Z,23.2
2023-09-08T18:34:00.481Z,22.8
2023-09-08T18:36:00.477Z,22.6
2023-09-08T18:38:01.184Z,22.3
2023-09-08T18:40:00.845Z,22.4
2023-09-08T18:42:00.810Z,22.1
2023-09-08T18:44:00.822Z,22.1
2023-09-08T18:46:00.623Z,22.1
2023-09-08T18:48:00.685Z,22.2
2023-09-08T18:50:01.018Z,22.1
2023-09-08T18:52:00.620Z,22.0
2023-09-08T18:54:01.246Z,22.0
2023-09-08T18:56:00.641Z,21.9
2023-09-08T18:58:00.969Z,21.9
2023-09-08T19:00:00.464Z,21.9
2023-09-08T19:02:00.816Z,21.8
2023-09-08T19:04:00.742Z,21.7
2023-09-08T19:06:00.883Z,21.7
2023-09-08T19:08:00.481Z,21.6
2023-09-08T19:10:00.634Z,21.6
2023-09-08T19:12:01.069Z,21.5
2023-09-08T19:14:01.477Z,21.5
2023-09-08T19:16:00.673Z,21.6
2023-09-08T19:18:00.723Z,21.7
2023-09-08T19:20:00.465Z,21.4
2023-09-08T19:22:00.533Z,21.6
2023-09-08T19:24:00.969Z,21.4
2023-09-08T19:26:04.214Z,21.5
2023-09-08T19:28:00.536Z,21.5
2023-09-08T19:30:00.595Z,21.3
2023-09-08T19:32:00.976Z,21.3
2023-09-08T19:34:00.768Z,21.3
2023-09-08T19:36:00.677Z,21.3
2023-09-08T19:38:00.982Z,21.1
2023-09-08T19:40:00.686Z,21.0
2023-09-08T19:42:00.466Z,20.9
2023-09-08T19:44:01.453Z,20.9
2023-09-08T19:46:01.505Z,20.9
2023-09-08T19:48:00.780Z,20.9
2023-09-08T19:50:00.762Z,20.9
2023-09-08T19:52:00.694Z,20.9
2023-09-08T19:54:00.504Z,20.9
2023-09-08T19:56:01.026Z,21.0
2023-09-08T19:58:00.486Z,20.8
2023-09-08T20:00:00.820Z,20.7
2023-09-08T20:02:00.830Z,20.8
2023-09-08T20:04:00.469Z,20.6
2023-09-08T20:06:01.367Z,20.7
2023-09-08T20:08:00.503Z,20.7
2023-09-08T20:10:00.629Z,20.6
2023-09-08T20:12:01.080Z,20.9
2023-09-08T20:14:00.887Z,20.8
2023-09-08T20:16:02.045Z,20.8
2023-09-08T20:18:00.927Z,20.8
2023-09-08T20:20:00.636Z,20.6
2023-09-08T20:22:00.491Z,20.5
2023-09-08T20:24:00.481Z,20.5
2023-09-08T20:26:01.633Z,20.5
2023-09-08T20:28:00.447Z,20.6
2023-09-08T20:30:00.627Z,20.5
2023-09-08T20:32:00.509Z,20.3
2023-09-08T20:34:00.724Z,20.1
2023-09-08T20:36:00.515Z,19.9
2023-09-08T20:38:00.745Z,19.9
2023-09-08T20:40:00.652Z,19.9
2023-09-08T20:42:00.494Z,19.9
2023-09-08T20:44:00.533Z,20.0
2023-09-08T20:46:01.253Z,20.2
2023-09-08T20:48:00.909Z,20.1
2023-09-08T20:50:01.280Z,20.1
2023-09-08T20:52:00.487Z,20.0
2023-09-08T20:54:00.749Z,19.9
2023-09-08T20:56:00.625Z,19.9
2023-09-08T20:58:00.826Z,19.8
2023-09-08T21:00:00.632Z,19.9
2023-09-08T21:02:01.120Z,19.9
2023-09-08T21:04:00.590Z,20.1
2023-09-08T21:06:01.085Z,20.0
2023-09-08T21:08:00.553Z,20.1
2023-09-08T21:10:00.842Z,20.1
2023-09-08T21:12:00.555Z,20.2
2023-09-08T21:14:01.162Z,20.2
2023-09-08T21:16:00.477Z,20.3
2023-09-08T21:18:00.718Z,20.2
2023-09-08T21:20:00.806Z,20.1
2023-09-08T21:22:00.920Z,20.0
2023-09-08T21:24:00.580Z,19.8
2023-09-08T21:26:04.399Z,19.8
2023-09-08T21:28:01.087Z,19.8
2023-09-08T21:30:01.537Z,19.8
2023-09-08T21:32:01.095Z,19.9
2023-09-08T21:34:00.607Z,20.1
2023-09-08T21:36:00.508Z,20.0
2023-09-08T21:38:00.976Z,20.0
2023-09-08T21:40:00.613Z,19.8
2023-09-08T21:42:00.832Z,19.7
2023-09-08T21:44:00.457Z,19.5
2023-09-08T21:46:02.010Z,19.5
2023-09-08T21:48:00.857Z,19.6
2023-09-08T21:50:00.839Z,19.5
2023-09-08T21:52:02.036Z,19.6
2023-09-08T21:54:01.012Z,19.5
2023-09-08T21:56:00.890Z,19.5
2023-09-08T21:58:00.841Z,19.6
2023-09-08T22:00:00.528Z,19.5
2023-09-08T22:02:01.049Z,19.5
2023-09-08T22:04:00.811Z,19.6
2023-09-08T22:06:00.864Z,19.6
2023-09-08T22:08:00.653Z,19.5
2023-09-08T22:10:00.563Z,19.1
2023-09-08T22:12:01.314Z,19.1
2023-09-08T22:14:00.882Z,19.3
2023-09-08T22:16:01.861Z,19.3
2023-09-08T22:18:00.652Z,19.4
2023-09-08T22:20:00.544Z,19.3
2023-09-08T22:22:00.636Z,19.1
2023-09-08T22:24:00.532Z,19.1
2023-09-08T22:26:01.415Z,19.3
2023-09-08T22:28:00.775Z,19.4
2023-09-08T22:30:00.780Z,19.2
2023-09-08T22:32:00.833Z,18.8
2023-09-08T22:34:00.953Z,18.7
2023-09-08T22:36:01.290Z,18.8
2023-09-08T22:38:00.813Z,18.6
2023-09-08T22:40:00.754Z,18.6
2023-09-08T22:42:00.481Z,18.6
2023-09-08T22:44:00.802Z,18.7
2023-09-08T22:46:00.837Z,18.6
2023-09-08T22:48:01.142Z,18.7
2023-09-08T22:50:02.847Z,18.8
2023-09-08T22:52:00.508Z,18.8
2023-09-08T22:54:00.833Z,18.8
2023-09-08T22:56:01.007Z,18.3
2023-09-08T22:58:00.556Z,18.1
2023-09-08T23:00:01.205Z,18.1
2023-09-08T23:02:01.093Z,17.9
2023-09-08T23:04:00.598Z,18.0
2023-09-08T23:06:01.001Z,18.2
2023-09-08T23:08:00.767Z,17.9
2023-09-08T23:10:00.652Z,18.1
2023-09-08T23:12:00.643Z,18.3
2023-09-08T23:14:00.745Z,18.3
2023-09-08T23:16:00.471Z,18.5
2023-09-08T23:18:01.026Z,18.6
2023-09-08T23:20:00.551Z,18.5
2023-09-08T23:22:00.739Z,18.6
2023-09-08T23:24:00.746Z,18.7
2023-09-08T23:26:02.158Z,18.7
2023-09-08T23:28:00.772Z,18.6
2023-09-08T23:30:01.046Z,18.5
2023-09-08T23:32:00.626Z,18.4
2023-09-08T23:34:00.612Z,18.3
2023-09-08T23:36:01.616Z,18.2
2023-09-08T23:38:01.141Z,18.0
2023-09-08T23:40:00.966Z,17.7
2023-09-08T23:42:00.773Z,17.6
2023-09-08T23:44:00.904Z,17.0
2023-09-08T23:46:00.810Z,17.1
2023-09-08T23:48:00.910Z,17.1
2023-09-08T23:50:00.759Z,17.1
2023-09-08T23:52:00.496Z,17.0
2023-09-08T23:54:00.475Z,17.0
2023-09-08T23:56:01.306Z,16.8
2023-09-08T23:58:00.826Z,16.4
